createdAt,value
2018-08-03T00:00:47.174Z,9.97
2018-08-03T00:03:16.937Z,9.90
2018-08-03T00:05:47.258Z,9.85
2018-08-03T00:08:16.697Z,9.90
2018-08-03T00:10:47.002Z,10.30
2018-08-03T00:13:16.502Z,9.80
2018-08-03T00:15:46.288Z,9.80
2018-08-03T00:18:16.109Z,10.47
2018-08-03T00:20:45.951Z,10.63
2018-08-03T00:23:16.723Z,11.60
2018-08-03T00:25:46.465Z,11.20
2018-08-03T00:28:15.941Z,11.95
2018-08-03T00:30:46.296Z,9.70
2018-08-03T00:33:16.107Z,10.70
2018-08-03T00:35:46.249Z,10.40
2018-08-03T00:38:15.683Z,10.35
2018-08-03T00:40:45.777Z,9.60
2018-08-03T00:43:15.699Z,9.00
2018-08-03T00:45:44.789Z,9.85
2018-08-03T00:48:14.378Z,9.95
2018-08-03T00:50:44.148Z,10.27
2018-08-03T00:53:14.141Z,10.00
2018-08-03T00:55:43.712Z,9.55
2018-08-03T00:58:14.268Z,10.15
2018-08-03T01:00:44.040Z,11.70
2018-08-03T01:03:13.902Z,11.80
2018-08-03T01:08:04.318Z,10.50
2018-08-03T01:10:34.756Z,10.73
2018-08-03T01:13:04.014Z,11.75
2018-08-03T01:15:34.415Z,11.00
2018-08-03T01:18:04.202Z,11.50
2018-08-03T01:20:34.667Z,12.60
2018-08-03T01:23:04.628Z,12.30
2018-08-03T01:25:34.372Z,12.80
2018-08-03T01:28:04.918Z,13.20
2018-08-03T01:30:34.624Z,16.40
2018-08-03T01:33:04.421Z,14.90
2018-08-03T01:35:35.272Z,17.90
2018-08-03T01:38:05.020Z,18.00
2018-08-03T01:40:34.583Z,16.20
2018-08-03T01:43:04.741Z,14.00
2018-08-03T01:45:34.955Z,13.80
2018-08-03T01:48:04.577Z,13.15
2018-08-03T01:50:34.008Z,11.90
2018-08-03T01:53:03.408Z,11.60
2018-08-03T01:55:33.000Z,12.55
2018-08-03T01:58:03.159Z,12.20
2018-08-03T02:00:32.720Z,13.45
2018-08-03T02:03:02.475Z,14.00
2018-08-03T02:05:32.113Z,14.10
2018-08-03T02:10:30.720Z,12.65
2018-08-03T02:13:00.357Z,11.70
2018-08-03T02:15:30.210Z,12.00
2018-08-03T02:18:01.091Z,12.80
2018-08-03T02:20:30.767Z,13.70
2018-08-03T02:23:01.025Z,12.80
2018-08-03T02:25:30.698Z,13.50
2018-08-03T02:28:01.570Z,13.60
2018-08-03T02:30:31.885Z,13.70
2018-08-03T02:33:01.492Z,13.50
2018-08-03T02:45:26.323Z,16.90
2018-08-03T02:47:55.827Z,17.25
2018-08-03T02:50:26.138Z,16.50
2018-08-03T02:52:55.886Z,15.35
2018-08-03T02:55:25.698Z,16.70
2018-08-03T02:57:55.362Z,15.40
2018-08-03T03:02:54.100Z,16.90
2018-08-03T03:12:49.528Z,17.30
2018-08-03T03:17:49.626Z,16.70
2018-08-03T03:22:47.625Z,18.60
2018-08-03T03:27:47.599Z,17.60
2018-08-03T03:32:46.258Z,22.05
2018-08-03T03:35:16.171Z,23.40
2018-08-03T03:37:45.905Z,21.60
2018-08-03T03:40:15.693Z,22.45
2018-08-03T03:42:45.308Z,22.70
2018-08-03T03:47:43.596Z,22.65
2018-08-03T04:02:39.219Z,22.70
2018-08-03T04:05:08.719Z,22.90
2018-08-03T04:07:38.603Z,22.70
2018-08-03T04:10:08.531Z,22.10
2018-08-03T04:12:38.265Z,21.85
2018-08-03T04:15:07.939Z,20.50
2018-08-03T04:20:06.234Z,19.80
2018-08-03T04:22:36.691Z,19.05
2018-08-03T04:27:36.137Z,19.80
2018-08-03T04:30:06.975Z,19.30
2018-08-03T04:32:36.658Z,19.70
2018-08-03T04:35:06.649Z,18.70
2018-08-03T04:37:36.980Z,19.80
2018-08-03T04:40:07.776Z,20.80
2018-08-03T04:42:38.602Z,20.50
2018-08-03T04:45:08.360Z,25.10
2018-08-03T04:47:39.422Z,26.95
2018-08-03T04:50:08.955Z,25.90
2018-08-03T04:52:39.226Z,25.90
2018-08-03T04:55:09.864Z,27.05
2018-08-03T04:57:40.472Z,25.43
2018-08-03T05:06:57.967Z,27.85
2018-08-03T05:09:27.556Z,29.10
2018-08-03T05:11:57.413Z,35.20
2018-08-03T05:14:27.570Z,33.10
2018-08-03T05:16:57.231Z,31.27
2018-08-03T05:19:27.092Z,30.40
2018-08-03T05:21:56.982Z,31.40
2018-08-03T05:24:26.921Z,32.23
2018-08-03T05:26:56.323Z,32.80
2018-08-03T05:29:26.012Z,30.37
2018-08-03T05:31:55.721Z,30.83
2018-08-03T05:34:26.167Z,31.60
2018-08-03T05:36:57.216Z,30.10
2018-08-03T05:39:27.994Z,29.57
2018-08-03T05:41:57.781Z,28.90
2018-08-03T05:44:27.679Z,28.97
2018-08-03T05:46:58.398Z,33.20
2018-08-03T05:49:28.646Z,33.27
2018-08-03T05:51:59.787Z,33.53
2018-08-03T05:54:32.835Z,33.15
2018-08-03T05:57:02.803Z,30.73
2018-08-03T05:59:33.287Z,30.37
2018-08-03T06:02:03.947Z,28.87
2018-08-03T06:04:33.673Z,29.93
2018-08-03T06:07:04.101Z,28.50
2018-08-03T06:09:35.368Z,27.77
2018-08-03T06:12:05.067Z,29.47
2018-08-03T06:14:34.809Z,30.87
2018-08-03T06:17:05.401Z,28.30
2018-08-03T06:19:35.825Z,34.40
2018-08-03T06:22:05.524Z,31.50
2018-08-03T06:24:35.258Z,31.50
2018-08-03T06:27:05.750Z,30.97
2018-08-03T06:29:37.063Z,30.27
2018-08-03T06:32:07.178Z,28.83
2018-08-03T06:34:36.702Z,30.50
2018-08-03T06:37:07.246Z,30.27
2018-08-03T06:39:40.630Z,30.00
2018-08-03T06:42:10.706Z,29.60
2018-08-03T06:44:40.685Z,28.83
2018-08-03T06:47:16.617Z,29.63
2018-08-03T06:49:47.292Z,28.40
2018-08-03T06:52:17.695Z,26.83
2018-08-03T06:54:47.865Z,26.40
2018-08-03T06:57:16.990Z,27.20
2018-08-03T06:59:48.212Z,25.27
2018-08-03T07:02:17.786Z,24.53
2018-08-03T07:04:48.863Z,23.80
2018-08-03T07:07:18.436Z,24.10
2018-08-03T07:09:48.108Z,23.97
2018-08-03T07:12:18.655Z,25.43
2018-08-03T07:14:48.792Z,24.50
2018-08-03T07:17:19.278Z,24.20
2018-08-03T07:19:48.959Z,23.33
2018-08-03T07:22:19.158Z,22.93
2018-08-03T07:24:49.084Z,21.97
2018-08-03T07:27:18.855Z,22.03
2018-08-03T07:29:48.412Z,21.27
2018-08-03T07:32:18.125Z,21.20
2018-08-03T07:34:49.142Z,19.47
2018-08-03T07:37:18.858Z,19.80
2018-08-03T07:39:48.727Z,18.10
2018-08-03T07:42:18.727Z,18.93
2018-08-03T07:44:48.504Z,18.97
2018-08-03T07:47:18.263Z,18.87
2018-08-03T07:49:48.490Z,18.40
2018-08-03T07:52:18.759Z,17.90
2018-08-03T07:57:51.277Z,16.90
2018-08-03T08:00:20.703Z,17.60
2018-08-03T08:02:50.141Z,17.17
2018-08-03T08:05:19.755Z,17.80
2018-08-03T08:07:49.289Z,16.50
2018-08-03T08:10:19.073Z,16.43
2018-08-03T08:12:48.914Z,17.57
2018-08-03T08:15:18.927Z,16.43
2018-08-03T08:17:48.355Z,18.20
2018-08-03T08:20:17.991Z,18.00
2018-08-03T08:22:47.640Z,16.07
2018-08-03T08:25:17.225Z,16.13
2018-08-03T08:27:46.773Z,14.73
2018-08-03T08:30:16.344Z,15.07
2018-08-03T08:32:46.061Z,16.17
2018-08-03T08:35:15.663Z,15.47
2018-08-03T08:37:45.167Z,13.00
2018-08-03T08:40:14.943Z,11.70
2018-08-03T08:42:44.762Z,11.50
2018-08-03T08:45:14.289Z,9.60
2018-08-03T08:47:43.888Z,8.37
2018-08-03T08:50:13.639Z,9.73
2018-08-03T08:52:43.163Z,9.67
2018-08-03T08:55:12.657Z,9.30
2018-08-03T08:57:42.183Z,10.10
2018-08-03T09:00:11.668Z,9.48
2018-08-03T09:02:43.288Z,9.90
2018-08-03T09:05:12.913Z,9.65
2018-08-03T09:07:42.622Z,8.83
2018-08-03T09:10:12.058Z,11.00
2018-08-03T09:12:41.651Z,8.53
2018-08-03T09:15:10.998Z,7.97
2018-08-03T09:17:40.417Z,8.70
2018-08-03T09:20:09.861Z,9.25
2018-08-03T09:22:39.484Z,8.20
2018-08-03T09:25:08.977Z,7.58
2018-08-03T09:27:38.507Z,9.00
2018-08-03T09:30:09.424Z,8.35
2018-08-03T09:32:38.980Z,9.03
2018-08-03T09:35:08.425Z,7.00
2018-08-03T09:37:38.103Z,9.15
2018-08-03T09:40:08.024Z,8.40
2018-08-03T09:42:37.566Z,9.85
2018-08-03T09:45:07.097Z,9.05
2018-08-03T09:47:36.534Z,9.35
2018-08-03T09:50:06.218Z,7.85
2018-08-03T09:52:35.769Z,8.65
2018-08-03T09:55:05.344Z,7.95
2018-08-03T09:57:34.846Z,10.70
2018-08-03T10:00:04.380Z,10.23
2018-08-03T10:02:34.205Z,8.68
2018-08-03T10:05:03.715Z,8.15
2018-08-03T10:07:33.256Z,8.13
2018-08-03T10:10:02.774Z,8.35
2018-08-03T10:12:32.275Z,8.68
2018-08-03T10:15:01.786Z,8.23
2018-08-03T10:17:31.177Z,7.53
2018-08-03T10:20:00.571Z,8.05
2018-08-03T10:22:29.647Z,10.18
2018-08-03T10:24:59.035Z,10.30
2018-08-03T10:27:28.496Z,10.50
2018-08-03T10:29:58.277Z,9.15
2018-08-03T10:32:27.752Z,10.95
2018-08-03T10:34:57.634Z,10.05
2018-08-03T10:37:27.290Z,10.13
2018-08-03T10:39:56.945Z,11.93
2018-08-03T10:42:26.567Z,11.12
2018-08-03T10:44:56.172Z,9.80
2018-08-03T10:47:25.707Z,11.68
2018-08-03T10:49:55.204Z,11.80
2018-08-03T10:52:24.593Z,11.80
2018-08-03T10:54:54.600Z,13.15
2018-08-03T10:57:24.065Z,10.72
2018-08-03T10:59:53.551Z,10.40
2018-08-03T11:02:22.974Z,11.00
2018-08-03T11:04:52.370Z,11.20
2018-08-03T11:07:21.769Z,10.85
2018-08-03T11:09:51.448Z,10.32
2018-08-03T11:12:21.012Z,13.35
2018-08-03T11:14:50.454Z,8.63
2018-08-03T11:17:19.983Z,12.40
2018-08-03T11:19:49.432Z,10.03
2018-08-03T11:22:18.944Z,13.40
2018-08-03T11:24:48.512Z,12.53
2018-08-03T11:27:18.270Z,11.90
2018-08-03T11:29:48.067Z,10.70
2018-08-03T11:32:17.487Z,11.03
2018-08-03T11:34:46.996Z,10.15
2018-08-03T11:37:16.702Z,10.72
2018-08-03T11:39:46.283Z,10.43
2018-08-03T11:42:15.774Z,8.13
2018-08-03T11:44:45.892Z,10.85
2018-08-03T11:47:15.663Z,12.58
2018-08-03T11:49:45.129Z,11.33
2018-08-03T11:52:14.578Z,8.95
2018-08-03T11:54:43.944Z,10.38
2018-08-03T11:57:13.502Z,8.28
2018-08-03T11:59:43.339Z,11.12
2018-08-03T12:02:12.796Z,10.08
2018-08-03T12:04:42.511Z,8.80
2018-08-03T12:07:12.100Z,9.63
2018-08-03T12:09:41.656Z,9.10
2018-08-03T12:12:11.069Z,10.28
2018-08-03T12:14:40.853Z,10.78
2018-08-03T12:17:10.437Z,9.48
2018-08-03T12:19:39.965Z,8.40
2018-08-03T12:22:09.034Z,7.62
2018-08-03T12:24:38.353Z,7.40
2018-08-03T12:27:07.928Z,9.35
2018-08-03T12:29:37.515Z,8.55
2018-08-03T12:32:07.319Z,8.35
2018-08-03T12:34:36.971Z,7.00
2018-08-03T12:37:06.574Z,8.70
2018-08-03T12:39:36.174Z,8.63
2018-08-03T12:42:05.721Z,6.67
2018-08-03T12:44:35.139Z,7.87
2018-08-03T12:47:04.533Z,9.38
2018-08-03T12:49:33.964Z,8.73
2018-08-03T12:52:03.451Z,8.53
2018-08-03T12:54:33.265Z,8.18
2018-08-03T12:57:02.747Z,8.73
2018-08-03T12:59:32.354Z,9.28
2018-08-03T13:02:01.849Z,7.78
2018-08-03T13:04:31.231Z,8.13
2018-08-03T13:07:00.887Z,7.60
2018-08-03T13:09:30.369Z,8.28
2018-08-03T13:11:59.832Z,7.60
2018-08-03T13:14:29.246Z,7.05
2018-08-03T13:16:58.779Z,7.42
2018-08-03T13:19:28.303Z,8.78
2018-08-03T13:21:57.897Z,8.33
2018-08-03T13:24:27.600Z,7.40
2018-08-03T13:26:57.218Z,8.13
2018-08-03T13:29:26.618Z,8.95
2018-08-03T13:31:56.164Z,8.03
2018-08-03T13:34:25.578Z,7.95
2018-08-03T13:36:55.068Z,7.87
2018-08-03T13:39:24.750Z,8.08
2018-08-03T13:41:54.094Z,8.08
2018-08-03T13:44:23.555Z,8.38
2018-08-03T13:46:52.963Z,8.05
2018-08-03T13:49:22.480Z,8.43
2018-08-03T13:51:52.002Z,8.45
2018-08-03T13:54:21.419Z,8.45
2018-08-03T13:56:50.772Z,6.78
2018-08-03T13:59:20.228Z,7.58
2018-08-03T14:02:01.533Z,7.28
2018-08-03T14:04:31.011Z,7.47
2018-08-03T14:07:00.709Z,6.00
2018-08-03T14:09:30.413Z,8.23
2018-08-03T14:11:59.979Z,7.58
2018-08-03T14:14:29.637Z,7.80
2018-08-03T14:16:59.302Z,5.62
2018-08-03T14:19:29.092Z,6.12
2018-08-03T14:21:58.632Z,4.78
2018-08-03T14:24:28.284Z,6.28
2018-08-03T14:26:57.903Z,5.25
2018-08-03T14:29:27.424Z,4.10
2018-08-03T14:31:56.982Z,4.85
2018-08-03T14:34:26.356Z,5.78
2018-08-03T14:36:56.101Z,5.72
2018-08-03T14:39:25.606Z,4.80
2018-08-03T14:41:55.224Z,5.12
2018-08-03T14:44:24.909Z,5.30
2018-08-03T14:46:54.494Z,5.28
2018-08-03T14:49:24.218Z,5.20
2018-08-03T14:51:54.610Z,5.45
2018-08-03T14:54:24.114Z,6.87
2018-08-03T14:56:53.515Z,4.12
2018-08-03T14:59:23.138Z,4.80
2018-08-03T15:01:52.620Z,5.83
2018-08-03T15:04:21.959Z,5.87
2018-08-03T15:06:51.474Z,5.70
2018-08-03T15:09:21.088Z,6.22
2018-08-03T15:11:50.616Z,5.80
2018-08-03T15:14:20.206Z,5.53
2018-08-03T15:16:49.879Z,6.03
2018-08-03T15:19:19.363Z,4.90
2018-08-03T15:21:48.930Z,6.25
2018-08-03T15:24:18.362Z,6.72
2018-08-03T15:26:48.005Z,6.50
2018-08-03T15:29:17.568Z,7.25
2018-08-03T15:31:47.047Z,6.70
2018-08-03T15:34:16.554Z,5.97
2018-08-03T15:36:46.163Z,7.60
2018-08-03T15:39:15.590Z,6.08
2018-08-03T15:41:45.252Z,5.92
2018-08-03T15:44:14.860Z,5.55
2018-08-03T15:46:44.394Z,5.75
2018-08-03T15:49:13.807Z,4.90
2018-08-03T15:51:43.290Z,5.90
2018-08-03T15:54:12.626Z,5.45
2018-08-03T15:56:42.026Z,6.20
2018-08-03T15:59:11.482Z,5.47
2018-08-03T16:01:40.890Z,5.95
2018-08-03T16:04:11.422Z,5.00
2018-08-03T16:06:42.801Z,4.92
2018-08-03T16:09:12.487Z,3.98
2018-08-03T16:11:42.108Z,5.62
2018-08-03T16:14:11.546Z,5.17
2018-08-03T16:16:40.973Z,3.90
2018-08-03T16:19:10.641Z,4.03
2018-08-03T16:21:40.029Z,3.40
2018-08-03T16:24:09.703Z,4.47
2018-08-03T16:26:39.174Z,3.72
2018-08-03T16:29:08.696Z,4.10
2018-08-03T16:31:38.321Z,4.03
2018-08-03T16:34:07.855Z,4.37
2018-08-03T16:36:37.263Z,4.15
2018-08-03T16:39:08.835Z,3.52
2018-08-03T16:41:38.467Z,3.47
2018-08-03T16:44:07.903Z,2.80
2018-08-03T16:46:37.401Z,2.40
2018-08-03T16:49:06.901Z,2.35
2018-08-03T16:51:36.243Z,2.87
2018-08-03T16:54:05.648Z,2.70
2018-08-03T16:56:34.971Z,2.60
2018-08-03T16:59:04.515Z,2.33
2018-08-03T17:01:33.955Z,2.30
2018-08-03T17:04:03.508Z,2.70
2018-08-03T17:06:33.076Z,2.90
2018-08-03T17:09:02.704Z,2.15
2018-08-03T17:11:32.166Z,2.40
2018-08-03T17:14:01.635Z,2.30
2018-08-03T17:16:30.968Z,2.67
2018-08-03T17:19:00.401Z,2.50
2018-08-03T17:21:29.780Z,2.47
2018-08-03T17:23:59.335Z,2.42
2018-08-03T17:26:28.856Z,2.50
2018-08-03T17:28:58.144Z,2.40
2018-08-03T17:31:27.450Z,2.27
2018-08-03T17:33:57.206Z,2.67
2018-08-03T17:36:26.734Z,2.63
2018-08-03T17:38:56.196Z,2.40
2018-08-03T17:41:25.673Z,2.30
2018-08-03T17:43:55.073Z,2.40
2018-08-03T17:46:24.666Z,2.10
2018-08-03T17:48:54.111Z,2.20
2018-08-03T17:51:23.599Z,2.40
2018-08-03T17:53:52.998Z,2.25
2018-08-03T17:56:22.267Z,2.17
2018-08-03T17:58:51.709Z,1.97
2018-08-03T18:01:21.255Z,2.30
2018-08-03T18:03:50.964Z,2.53
2018-08-03T18:06:20.685Z,2.17
2018-08-03T18:08:50.724Z,2.37
2018-08-03T18:11:20.420Z,2.37
2018-08-03T18:13:49.916Z,1.97
2018-08-03T18:16:19.395Z,2.30
2018-08-03T18:18:49.073Z,2.07
2018-08-03T18:21:18.550Z,2.30
2018-08-03T18:23:48.241Z,2.30
2018-08-03T18:26:17.602Z,3.10
2018-08-03T18:28:46.971Z,2.50
2018-08-03T18:31:16.733Z,2.80
2018-08-03T18:33:46.116Z,2.33
2018-08-03T18:36:15.683Z,3.30
2018-08-03T18:38:45.060Z,2.57
2018-08-03T18:41:14.431Z,3.00
2018-08-03T18:43:43.917Z,2.47
2018-08-03T18:46:13.311Z,2.77
2018-08-03T18:48:42.719Z,2.60
2018-08-03T18:51:12.259Z,4.60
2018-08-03T18:53:41.991Z,4.07
2018-08-03T18:56:11.661Z,3.40
2018-08-03T18:58:41.111Z,2.80
2018-08-03T19:01:10.389Z,2.30
2018-08-03T19:03:39.854Z,2.20
2018-08-03T19:06:09.286Z,2.60
2018-08-03T19:08:39.032Z,2.80
2018-08-03T19:11:08.545Z,2.90
2018-08-03T19:13:38.548Z,3.00
2018-08-03T19:16:10.182Z,3.20
2018-08-03T19:18:41.530Z,3.20
2018-08-03T19:21:10.928Z,8.07
2018-08-03T19:23:40.315Z,7.50
2018-08-03T19:26:09.651Z,3.10
2018-08-03T19:28:39.173Z,3.43
2018-08-03T19:31:08.566Z,2.50
2018-08-03T19:33:38.182Z,2.77
2018-08-03T19:36:07.643Z,2.93
2018-08-03T19:38:37.045Z,2.60
2018-08-03T19:41:06.505Z,3.00
2018-08-03T19:43:35.906Z,3.10
2018-08-03T19:46:05.632Z,3.27
2018-08-03T19:48:35.108Z,3.00
2018-08-03T19:51:04.448Z,3.10
2018-08-03T19:53:33.742Z,3.10
2018-08-03T19:56:03.173Z,3.13
2018-08-03T19:58:32.680Z,4.00
2018-08-03T20:01:02.332Z,3.83
2018-08-03T20:03:31.958Z,4.47
2018-08-03T20:06:01.404Z,4.97
2018-08-03T20:08:30.787Z,7.27
2018-08-03T20:11:00.236Z,9.73
2018-08-03T20:13:29.705Z,8.27
2018-08-03T20:15:59.436Z,6.10
2018-08-03T20:18:28.878Z,5.10
2018-08-03T20:20:58.347Z,9.53
2018-08-03T20:23:27.735Z,9.50
2018-08-03T20:25:57.402Z,7.10
2018-08-03T20:28:26.835Z,8.20
2018-08-03T20:30:56.552Z,6.40
2018-08-03T20:33:26.002Z,5.77
2018-08-03T20:35:55.483Z,5.93
2018-08-03T20:38:25.243Z,4.73
2018-08-03T20:40:54.903Z,4.53
2018-08-03T20:43:24.314Z,4.37
2018-08-03T20:45:53.825Z,3.87
2018-08-03T20:48:23.187Z,3.93
2018-08-03T20:50:52.697Z,3.67
2018-08-03T20:53:22.167Z,3.67
2018-08-03T20:55:51.752Z,3.70
2018-08-03T20:58:21.344Z,3.60
2018-08-03T21:00:50.920Z,3.97
2018-08-03T21:03:20.427Z,3.20
2018-08-03T21:05:49.847Z,4.47
2018-08-03T21:08:19.363Z,5.13
2018-08-03T21:10:48.974Z,4.85
2018-08-03T21:13:18.447Z,4.90
2018-08-03T21:15:47.869Z,5.30
2018-08-03T21:18:17.256Z,5.00
2018-08-03T21:20:46.641Z,5.27
2018-08-03T21:23:15.991Z,5.13
2018-08-03T21:25:45.449Z,4.50
2018-08-03T21:28:15.254Z,5.00
2018-08-03T21:30:44.803Z,4.63
2018-08-03T21:33:14.422Z,4.67
2018-08-03T21:35:43.839Z,4.90
2018-08-03T21:38:13.431Z,4.63
2018-08-03T21:40:42.872Z,4.37
2018-08-03T21:43:12.362Z,4.20
2018-08-03T21:45:41.774Z,4.33
2018-08-03T21:48:11.193Z,5.30
2018-08-03T21:50:40.617Z,4.80
2018-08-03T21:53:10.169Z,5.70
2018-08-03T21:55:39.651Z,5.50
2018-08-03T21:58:09.059Z,5.57
2018-08-03T22:00:38.594Z,5.53
2018-08-03T22:03:08.282Z,5.90
2018-08-03T22:05:37.797Z,6.07
2018-08-03T22:08:07.197Z,5.87
2018-08-03T22:10:36.735Z,6.10
2018-08-03T22:13:06.095Z,5.13
2018-08-03T22:15:35.665Z,5.60
2018-08-03T22:18:05.300Z,5.70
2018-08-03T22:20:35.166Z,6.00
2018-08-03T22:23:05.130Z,5.90
2018-08-03T22:25:34.719Z,5.90
2018-08-03T22:28:04.209Z,6.63
2018-08-03T22:30:33.839Z,6.10
2018-08-03T22:33:03.451Z,7.40
2018-08-03T22:35:33.015Z,7.23
2018-08-03T22:38:02.383Z,6.73
2018-08-03T22:40:31.802Z,6.05
2018-08-03T22:43:01.275Z,6.40
2018-08-03T22:45:30.891Z,7.60
2018-08-03T22:48:00.498Z,7.10
2018-08-03T22:50:29.868Z,7.40
2018-08-03T22:52:59.342Z,6.37
2018-08-03T22:55:28.779Z,6.83
2018-08-03T22:57:58.198Z,6.70
2018-08-03T23:00:27.601Z,6.33
2018-08-03T23:02:57.136Z,6.00
2018-08-03T23:05:26.424Z,6.27
2018-08-03T23:07:55.965Z,6.53
2018-08-03T23:10:25.498Z,6.37
2018-08-03T23:12:55.282Z,6.50
2018-08-03T23:15:24.934Z,6.70
2018-08-03T23:17:54.520Z,7.03
2018-08-03T23:20:24.054Z,6.47
2018-08-03T23:22:53.562Z,6.90
2018-08-03T23:25:23.027Z,6.40
2018-08-03T23:27:52.419Z,6.03
2018-08-03T23:30:21.823Z,7.00
2018-08-03T23:32:51.344Z,6.57
2018-08-03T23:35:20.781Z,6.93
2018-08-03T23:37:50.274Z,7.30
2018-08-03T23:40:19.765Z,7.47
2018-08-03T23:42:49.438Z,8.60
2018-08-03T23:45:18.816Z,8.20
2018-08-03T23:47:48.216Z,8.40
2018-08-03T23:50:19.193Z,8.70
2018-08-03T23:52:49.508Z,9.53
2018-08-03T23:55:19.306Z,9.10
2018-08-03T23:57:48.881Z,8.97
